Time;durP1;ratioP1;P1;durP2;ratioP2;P2;SDS_P1;SDS_P2;PMS_P1;PMS_P2;Temp;Humidity;BMP_temperature;BMP_pressure;BME280_temperature;BME280_humidity;BME280_pressure;Samples;Min_cycle;Max_cycle;Signal;HPM_P1;HPM_P2
2023/03/31 00:00:13;;;;;;;11.60;7.03;;;;;;;9.79;57.00;95022.69;5009928;28;20215;-69
2023/03/31 00:02:41;;;;;;;8.45;6.75;;;;;;;9.77;56.94;95019.38;5012771;28;20314;-68
2023/03/31 00:05:09;;;;;;;7.03;6.13;;;;;;;9.86;56.45;95019.09;5009612;28;20239;-69
2023/03/31 00:07:36;;;;;;;10.57;7.15;;;;;;;10.02;56.55;95007.56;5008968;28;20358;-68
2023/03/31 00:10:04;;;;;;;10.25;7.18;;;;;;;9.84;56.16;95015.78;5008204;28;20781;-71
2023/03/31 00:12:33;;;;;;;9.02;6.70;;;;;;;9.83;57.65;95006.50;5008928;28;20225;-64
2023/03/31 00:15:00;;;;;;;13.10;7.00;;;;;;;9.87;57.50;94995.38;5006813;28;20207;-68
2023/03/31 00:17:26;;;;;;;10.05;6.32;;;;;;;9.85;56.90;95017.44;5008208;28;20208;-70
2023/03/31 00:19:58;;;;;;;9.48;6.85;;;;;;;9.81;57.30;95011.63;5007252;28;20303;-69
2023/03/31 00:22:26;;;;;;;11.13;6.93;;;;;;;9.72;56.86;95016.13;5006036;28;20876;-68
2023/03/31 00:24:53;;;;;;;10.88;6.63;;;;;;;9.79;56.77;95010.00;5006895;28;20211;-68
2023/03/31 00:27:19;;;;;;;10.07;6.70;;;;;;;9.87;56.90;95001.28;5007031;28;20309;-67
2023/03/31 00:29:49;;;;;;;13.57;7.22;;;;;;;9.95;56.28;94998.47;5008841;28;20230;-65
2023/03/31 00:32:16;;;;;;;11.57;6.82;;;;;;;9.97;56.44;95011.94;5010712;28;20854;-68
2023/03/31 00:34:43;;;;;;;9.27;7.20;;;;;;;10.10;56.76;95000.53;5008275;28;20297;-65
2023/03/31 00:37:13;;;;;;;9.18;6.70;;;;;;;10.23;56.41;95004.34;5009586;28;20212;-67
2023/03/31 00:39:40;;;;;;;15.35;7.38;;;;;;;10.20;56.22;94999.38;5010740;28;20207;-70
2023/03/31 00:42:07;;;;;;;14.70;7.22;;;;;;;10.27;56.19;94994.09;5012477;28;20401;-70
2023/03/31 00:44:59;;;;;;;14.65;7.97;;;;;;;10.28;56.00;94986.41;5010970;28;20265;-64
2023/03/31 00:47:29;;;;;;;10.68;7.95;;;;;;;10.26;56.24;94994.97;5011767;28;20209;-69
2023/03/31 00:49:57;;;;;;;14.88;8.38;;;;;;;10.27;56.39;94999.16;5011840;28;20209;-71
2023/03/31 00:52:31;;;;;;;16.20;7.93;;;;;;;10.55;55.92;94980.41;5007829;28;20334;-66
2023/03/31 00:55:03;;;;;;;12.73;7.35;;;;;;;10.47;56.20;94979.00;5007665;28;20208;-69
2023/03/31 00:57:33;;;;;;;19.80;9.48;;;;;;;10.35;56.16;94976.91;5012139;28;20293;-67
2023/03/31 01:00:08;;;;;;;16.88;7.85;;;;;;;10.49;56.31;94975.53;5011242;28;20296;-68
2023/03/31 01:02:40;;;;;;;12.30;7.88;;;;;;;10.48;56.52;94957.78;5012098;28;20230;-63
2023/03/31 01:05:09;;;;;;;16.15;8.20;;;;;;;10.42;55.98;94973.25;5008266;28;20243;-67
2023/03/31 01:07:42;;;;;;;15.90;7.90;;;;;;;10.55;55.82;94969.41;5011362;28;20223;-69
2023/03/31 01:10:10;;;;;;;16.55;8.60;;;;;;;10.53;55.71;94968.63;5013092;28;20294;-69
2023/03/31 01:12:40;;;;;;;10.00;6.68;;;;;;;10.47;54.98;94945.97;5011561;28;20313;-66
2023/03/31 01:15:08;;;;;;;16.30;7.05;;;;;;;10.46;55.06;94972.25;5010557;28;20337;-66
2023/03/31 01:17:37;;;;;;;14.18;7.88;;;;;;;10.56;54.94;94966.00;5011200;28;20208;-69
2023/03/31 01:20:14;;;;;;;12.75;8.20;;;;;;;10.50;55.13;94961.94;5011941;28;20243;-67
2023/03/31 01:23:13;;;;;;;15.75;8.00;;;;;;;10.64;54.06;94973.34;5012242;28;20283;-67
2023/03/31 01:26:19;;;;;;;13.90;7.82;;;;;;;10.54;55.04;94983.00;5010984;28;20287;-64
2023/03/31 01:28:56;;;;;;;16.45;7.70;;;;;;;10.62;55.09;94978.47;5007569;28;20295;-65
2023/03/31 01:31:59;;;;;;;12.88;7.70;;;;;;;10.64;55.87;94974.16;5011793;28;20691;-66
2023/03/31 01:34:53;;;;;;;13.93;8.90;;;;;;;10.63;54.34;94976.78;5011594;28;20204;-68
2023/03/31 01:37:55;;;;;;;11.10;7.35;;;;;;;10.53;54.29;94983.88;5012038;28;20420;-67
2023/03/31 01:40:37;;;;;;;9.85;6.63;;;;;;;10.53;54.44;94987.25;5005653;28;20253;-68
2023/03/31 01:43:10;;;;;;;15.75;7.35;;;;;;;10.62;54.13;94991.19;5011613;28;20266;-66
2023/03/31 01:45:47;;;;;;;10.18;6.30;;;;;;;10.68;54.24;94990.94;5010189;28;20332;-68
2023/03/31 01:48:17;;;;;;;11.00;6.68;;;;;;;10.61;54.67;94999.69;5011446;28;20651;-66
2023/03/31 01:50:47;;;;;;;12.93;7.20;;;;;;;10.77;53.94;94989.81;5011566;28;20199;-66
2023/03/31 01:53:21;;;;;;;14.35;7.60;;;;;;;10.70;54.21;94991.72;5011686;28;20207;-64
2023/03/31 01:55:58;;;;;;;17.67;7.32;;;;;;;10.57;54.43;94990.50;5009850;28;20231;-68
2023/03/31 01:58:28;;;;;;;16.67;8.50;;;;;;;10.49;55.29;94989.94;5010038;28;20234;-70
2023/03/31 02:01:00;;;;;;;13.05;7.78;;;;;;;10.54;55.71;95009.22;5011087;28;20196;-64
2023/03/31 02:03:33;;;;;;;11.13;7.75;;;;;;;10.50;55.48;94991.59;5009821;28;20727;-66
2023/03/31 02:06:07;;;;;;;11.63;7.18;;;;;;;10.59;55.40;94996.38;5009981;28;20235;-68
2023/03/31 02:08:39;;;;;;;14.73;7.60;;;;;;;10.31;56.39;95008.34;5010337;28;20211;-67
2023/03/31 02:11:07;;;;;;;9.18;6.60;;;;;;;10.23;56.37;95009.44;5010584;28;20294;-64
2023/03/31 02:13:37;;;;;;;13.38;7.57;;;;;;;10.41;56.09;95012.22;5010636;28;20207;-66
2023/03/31 02:16:10;;;;;;;14.77;7.30;;;;;;;10.44;56.15;95018.03;5009917;28;20212;-67
2023/03/31 02:18:40;;;;;;;13.75;7.88;;;;;;;10.54;55.99;95013.47;5010574;28;20334;-65
2023/03/31 02:21:08;;;;;;;13.27;7.60;;;;;;;10.58;56.43;95025.22;5009538;28;20239;-69
2023/03/31 02:23:38;;;;;;;13.85;7.47;;;;;;;10.60;57.36;95038.69;5009860;28;20362;-65
2023/03/31 02:26:11;;;;;;;19.50;8.02;;;;;;;10.55;57.96;95036.31;5010902;28;20705;-67
2023/03/31 02:28:38;;;;;;;14.27;7.70;;;;;;;10.56;58.80;95044.75;5010016;28;20303;-66
2023/03/31 02:31:13;;;;;;;13.32;7.60;;;;;;;10.69;59.42;95042.63;5010319;28;20270;-66
2023/03/31 02:33:40;;;;;;;12.38;7.43;;;;;;;10.84;60.54;95042.94;5008596;28;20662;-64
2023/03/31 02:36:07;;;;;;;12.82;5.75;;;;;;;10.86;60.19;95041.16;5009913;28;20938;-68
2023/03/31 02:38:39;;;;;;;8.48;5.40;;;;;;;10.82;60.04;95034.53;5009868;28;21485;-64
2023/03/31 02:41:07;;;;;;;5.63;4.57;;;;;;;11.04;61.50;95043.94;5011600;28;20199;-66
2023/03/31 02:43:34;;;;;;;3.88;3.58;;;;;;;11.07;61.90;95046.38;5010761;28;20313;-70
2023/03/31 02:46:01;;;;;;;4.13;3.67;;;;;;;11.04;63.14;95054.09;5011030;28;20235;-74
2023/03/31 02:48:30;;;;;;;3.80;3.50;;;;;;;11.11;66.22;95042.84;5009531;28;20231;-71
2023/03/31 02:51:32;;;;;;;3.17;1.92;;;;;;;11.13;66.49;95030.91;5009160;28;20286;-70
2023/03/31 02:54:14;;;;;;;4.85;2.38;;;;;;;11.00;67.01;95027.97;5009628;28;20230;-69
2023/03/31 02:57:04;;;;;;;1.80;1.70;;;;;;;10.85;68.03;95029.34;5009434;28;20239;-67
2023/03/31 02:59:40;;;;;;;2.88;2.00;;;;;;;10.90;68.79;95021.53;5009982;28;20834;-68
2023/03/31 03:02:17;;;;;;;5.72;2.20;;;;;;;10.85;69.32;95009.00;5009134;28;20243;-70
2023/03/31 03:05:08;;;;;;;5.32;2.10;;;;;;;10.86;68.95;95010.66;5009478;28;20309;-68
2023/03/31 03:07:44;;;;;;;3.15;1.90;;;;;;;10.97;68.99;95009.44;5011016;28;20777;-67
2023/03/31 03:10:17;;;;;;;3.00;2.08;;;;;;;10.98;69.28;95004.28;5010002;28;20265;-65
2023/03/31 03:12:51;;;;;;;2.10;2.00;;;;;;;10.96;70.14;95000.16;5009321;28;20298;-63
2023/03/31 03:15:24;;;;;;;5.97;1.90;;;;;;;11.14;68.35;94981.66;5010262;28;20653;-68
2023/03/31 03:17:51;;;;;;;4.03;2.65;;;;;;;11.06;68.30;94987.06;5007729;28;20262;-68
2023/03/31 03:20:20;;;;;;;3.47;1.92;;;;;;;10.96;68.29;94970.47;5009226;28;22489;-66
2023/03/31 03:22:47;;;;;;;4.28;2.20;;;;;;;10.91;68.67;94985.06;5009508;28;20793;-66
2023/03/31 03:25:17;;;;;;;3.67;2.08;;;;;;;10.86;68.92;94985.25;5009066;28;20287;-63
2023/03/31 03:27:45;;;;;;;4.07;2.53;;;;;;;10.87;69.18;94981.81;5008860;28;20651;-68
2023/03/31 03:30:13;;;;;;;3.20;2.20;;;;;;;10.83;69.40;94980.25;5009749;28;21667;-67
2023/03/31 03:32:41;;;;;;;4.30;2.13;;;;;;;10.84;69.29;94979.38;5007412;28;20228;-65
2023/03/31 03:35:09;;;;;;;5.10;2.80;;;;;;;10.84;68.82;94979.38;5011122;28;20286;-70
2023/03/31 03:37:36;;;;;;;6.35;2.95;;;;;;;10.95;67.84;94978.97;5009215;28;20203;-65
2023/03/31 03:40:05;;;;;;;4.30;2.85;;;;;;;11.07;67.92;94967.53;5007031;28;20235;-69
2023/03/31 03:42:32;;;;;;;11.75;2.80;;;;;;;11.18;67.21;94971.31;5007825;28;20207;-71
2023/03/31 03:45:01;;;;;;;4.97;3.67;;;;;;;11.15;66.69;94963.81;5010356;28;20298;-65
2023/03/31 03:47:28;;;;;;;6.22;3.90;;;;;;;11.22;65.66;94956.78;5008289;28;20211;-69
2023/03/31 03:49:55;;;;;;;5.72;4.07;;;;;;;11.23;65.70;94963.53;5010631;28;20228;-64
2023/03/31 03:52:22;;;;;;;7.30;4.05;;;;;;;11.37;65.97;94960.47;5008021;28;20318;-67
2023/03/31 03:54:49;;;;;;;12.73;4.78;;;;;;;11.27;66.44;94965.06;5010231;28;20300;-67
2023/03/31 03:57:16;;;;;;;13.50;5.57;;;;;;;11.33;65.49;94964.84;5010633;28;20208;-69
2023/03/31 03:59:42;;;;;;;12.73;5.40;;;;;;;11.20;65.59;94964.47;5010032;28;20204;-71
2023/03/31 04:02:11;;;;;;;10.70;5.75;;;;;;;11.08;67.14;94952.22;5008658;28;20196;-71
2023/03/31 04:04:38;;;;;;;10.15;5.93;;;;;;;11.14;66.87;94968.94;5013235;28;20792;-69
2023/03/31 04:07:05;;;;;;;10.95;5.13;;;;;;;11.02;66.95;94977.03;5013919;28;20329;-68
2023/03/31 04:09:31;;;;;;;14.77;4.82;;;;;;;10.94;67.58;94973.94;5012627;28;20235;-68
2023/03/31 04:11:58;;;;;;;13.63;5.88;;;;;;;11.00;68.13;94973.72;5013717;28;20377;-69
2023/03/31 04:14:25;;;;;;;15.57;8.50;;;;;;;10.95;68.52;94978.97;5010750;28;20491;-63
2023/03/31 04:16:55;;;;;;;7.70;4.70;;;;;;;10.83;68.57;94974.34;5014840;28;20210;-67
2023/03/31 04:19:24;;;;;;;7.20;4.40;;;;;;;10.79;68.94;94958.38;5012735;28;20330;-67
2023/03/31 04:21:57;;;;;;;5.35;3.92;;;;;;;10.87;68.75;94975.91;5014002;28;20368;-67
2023/03/31 04:24:29;;;;;;;7.50;3.78;;;;;;;10.91;68.52;94968.09;5010401;28;20219;-68
2023/03/31 04:26:56;;;;;;;8.13;4.15;;;;;;;10.85;68.68;94978.50;5013296;28;20783;-66
2023/03/31 04:29:25;;;;;;;11.45;4.13;;;;;;;10.86;67.78;94970.00;5012155;28;20297;-63
2023/03/31 04:31:52;;;;;;;5.05;4.20;;;;;;;11.04;68.13;94977.81;5012094;28;20216;-71
2023/03/31 04:34:21;;;;;;;5.53;4.93;;;;;;;11.11;67.65;94969.09;5011885;28;20211;-66
2023/03/31 04:36:49;;;;;;;7.78;4.30;;;;;;;11.04;67.54;94967.66;5013796;28;20222;-70
2023/03/31 04:39:17;;;;;;;7.30;3.90;;;;;;;11.12;67.17;94958.03;5054308;22;20333;-66
2023/03/31 04:41:44;;;;;;;8.52;5.47;;;;;;;11.20;67.15;94958.56;5018498;28;20763;-69
2023/03/31 04:44:11;;;;;;;6.72;4.70;;;;;;;11.20;67.27;94956.00;5017936;28;20247;-70
2023/03/31 04:46:37;;;;;;;10.13;5.13;;;;;;;11.18;67.28;94952.69;5017229;28;20756;-66
2023/03/31 04:49:04;;;;;;;6.15;3.92;;;;;;;11.24;66.59;94955.00;5018180;28;21417;-67
2023/03/31 04:51:31;;;;;;;11.52;4.75;;;;;;;11.39;66.47;94948.50;5018579;28;20304;-65
2023/03/31 04:53:59;;;;;;;4.72;3.78;;;;;;;11.48;66.15;94953.25;5020564;28;20235;-67
2023/03/31 04:56:26;;;;;;;6.72;3.95;;;;;;;11.56;66.21;94949.53;5017980;28;20305;-66
2023/03/31 04:58:53;;;;;;;5.38;3.47;;;;;;;11.80;64.43;94949.47;5018680;28;20207;-67
2023/03/31 05:01:20;;;;;;;8.95;3.63;;;;;;;11.86;62.98;94939.06;5017165;28;20327;-67
2023/03/31 05:03:47;;;;;;;7.13;3.78;;;;;;;11.92;62.90;94938.78;5018241;28;20322;-67
2023/03/31 05:06:14;;;;;;;4.32;3.92;;;;;;;11.98;63.52;94936.00;5018744;28;20206;-69
2023/03/31 05:08:41;;;;;;;6.25;3.97;;;;;;;12.09;62.88;94926.19;5018953;28;20210;-66
2023/03/31 05:11:09;;;;;;;5.38;3.60;;;;;;;12.03;63.72;94923.91;5018954;28;20290;-69
2023/03/31 05:13:36;;;;;;;4.88;3.45;;;;;;;12.03;62.96;94926.44;5017516;28;20204;-69
2023/03/31 05:16:07;;;;;;;4.45;4.05;;;;;;;12.04;62.49;94924.72;5016151;28;20737;-71
2023/03/31 05:18:34;;;;;;;4.22;3.78;;;;;;;12.13;63.18;94924.31;5017351;28;20288;-69
2023/03/31 05:21:09;;;;;;;4.63;3.53;;;;;;;12.27;62.71;94924.59;5018221;28;20270;-68
2023/03/31 05:23:36;;;;;;;6.88;3.85;;;;;;;12.41;61.33;94922.28;5017250;28;20224;-73
2023/03/31 05:26:03;;;;;;;4.78;4.28;;;;;;;12.69;59.67;94932.09;5017041;28;20213;-70
2023/03/31 05:28:31;;;;;;;7.30;4.40;;;;;;;12.98;58.43;94919.78;4998799;28;21727;-68
2023/03/31 05:30:59;;;;;;;9.27;3.63;;;;;;;13.31;57.25;94915.75;4997494;28;20581;-70
2023/03/31 05:33:26;;;;;;;4.78;3.40;;;;;;;13.61;55.23;94916.81;4997677;28;20218;-70
2023/03/31 05:35:52;;;;;;;3.40;3.00;;;;;;;13.85;53.89;94896.13;4998224;28;20216;-70
2023/03/31 05:38:20;;;;;;;4.28;2.78;;;;;;;14.16;53.98;94911.59;4997798;28;20358;-63
2023/03/31 05:40:47;;;;;;;2.90;2.45;;;;;;;14.36;52.63;94909.75;4998232;28;20215;-70
2023/03/31 05:43:14;;;;;;;6.25;4.00;;;;;;;14.57;51.28;94916.38;4997304;28;20228;-73
2023/03/31 05:45:42;;;;;;;5.65;3.33;;;;;;;14.90;49.31;94894.16;4997554;28;20262;-74
2023/03/31 05:48:09;;;;;;;4.03;2.47;;;;;;;15.15;47.56;94903.06;4996520;28;20303;-69
2023/03/31 05:50:35;;;;;;;2.45;2.25;;;;;;;15.55;46.27;94905.13;4996363;28;20208;-69
2023/03/31 05:53:02;;;;;;;4.55;2.20;;;;;;;15.77;45.20;94898.84;4996792;28;20287;-69
2023/03/31 05:55:29;;;;;;;8.93;3.63;;;;;;;15.77;45.11;94901.41;4998007;28;20262;-70
2023/03/31 05:57:56;;;;;;;5.13;2.92;;;;;;;15.66;45.36;94909.66;4997299;28;20227;-67
2023/03/31 06:00:23;;;;;;;5.88;2.40;;;;;;;15.40;46.19;94911.06;4997493;28;20208;-74
2023/03/31 06:02:51;;;;;;;8.57;2.70;;;;;;;15.25;46.25;94911.91;4997675;28;20278;-70
2023/03/31 06:05:18;;;;;;;8.45;4.05;;;;;;;15.07;46.79;94912.91;4996630;28;20343;-72
2023/03/31 06:07:45;;;;;;;14.23;5.47;;;;;;;14.98;46.44;94920.16;4996212;28;20334;-70
2023/03/31 06:10:12;;;;;;;15.43;6.65;;;;;;;14.77;47.62;94921.28;4997637;28;20270;-70
2023/03/31 06:12:38;;;;;;;15.80;6.47;;;;;;;14.76;48.04;94927.31;4997295;28;20244;-68
2023/03/31 06:15:06;;;;;;;5.32;3.50;;;;;;;14.74;48.75;94923.19;4997719;28;20210;-70
2023/03/31 06:17:33;;;;;;;5.15;3.90;;;;;;;14.77;48.00;94918.75;4998259;28;20232;-66
2023/03/31 06:20:01;;;;;;;13.85;2.63;;;;;;;14.67;47.95;94916.72;4997671;28;20760;-67
2023/03/31 06:22:27;;;;;;;9.60;4.10;;;;;;;14.95;47.57;94907.53;4995137;28;22236;-68
2023/03/31 06:24:54;;;;;;;3.78;2.50;;;;;;;15.67;45.84;94915.63;4996198;28;20315;-71
2023/03/31 06:27:21;;;;;;;4.32;2.88;;;;;;;16.55;43.69;94906.22;4996815;28;20231;-73
2023/03/31 06:29:49;;;;;;;3.53;2.22;;;;;;;17.34;41.88;94905.69;4996814;28;20293;-72
2023/03/31 06:32:15;;;;;;;3.83;2.97;;;;;;;18.26;40.23;94906.63;4996482;28;20219;-65
2023/03/31 06:34:42;;;;;;;5.72;2.55;;;;;;;19.73;37.41;94912.00;4996623;28;21016;-69
2023/03/31 06:37:10;;;;;;;3.47;2.90;;;;;;;20.63;35.76;94906.19;4996795;28;20207;-72
2023/03/31 06:39:37;;;;;;;3.38;2.40;;;;;;;21.47;33.43;94900.53;4994769;28;20322;-66
2023/03/31 06:42:04;;;;;;;6.57;3.63;;;;;;;23.36;31.12;94903.81;4996639;28;20299;-66
2023/03/31 06:44:31;;;;;;;6.40;3.30;;;;;;;25.75;28.18;94899.34;4997068;28;20224;-70
2023/03/31 06:46:57;;;;;;;3.90;2.50;;;;;;;26.62;26.17;94898.66;4997257;28;20207;-69
2023/03/31 06:49:24;;;;;;;8.43;3.33;;;;;;;25.73;26.62;94909.94;4995732;28;20208;-68
2023/03/31 06:51:51;;;;;;;4.05;3.20;;;;;;;24.53;28.33;94910.75;4995422;28;20271;-67
2023/03/31 06:54:19;;;;;;;6.82;4.13;;;;;;;23.45;30.04;94917.78;4995866;28;20646;-69
2023/03/31 06:56:46;;;;;;;7.07;2.95;;;;;;;22.50;31.53;94916.38;4995879;28;20678;-70
2023/03/31 06:59:13;;;;;;;4.60;2.47;;;;;;;22.03;32.17;94921.06;4995543;28;20228;-71
2023/03/31 07:01:41;;;;;;;7.88;2.47;;;;;;;21.92;32.34;94905.56;4996119;28;20294;-68
2023/03/31 07:04:08;;;;;;;8.23;3.03;;;;;;;21.92;31.79;94887.47;4995784;28;20228;-71
2023/03/31 07:06:35;;;;;;;5.32;2.95;;;;;;;21.70;32.35;94881.44;4995957;28;21835;-68
2023/03/31 07:09:03;;;;;;;6.85;2.90;;;;;;;22.27;32.13;94869.88;4997038;28;20211;-67
2023/03/31 07:11:32;;;;;;;5.57;3.90;;;;;;;25.76;27.83;94860.16;4995091;28;20587;-71
2023/03/31 07:13:58;;;;;;;16.48;6.18;;;;;;;29.36;23.82;94852.16;4995260;28;20268;-67
2023/03/31 07:16:25;;;;;;;6.90;4.35;;;;;;;32.14;20.71;94838.75;4995993;28;21666;-71
2023/03/31 07:18:53;;;;;;;5.10;3.25;;;;;;;34.38;18.55;94834.63;4995965;28;20327;-65
2023/03/31 07:21:20;;;;;;;5.43;3.10;;;;;;;35.67;17.29;94826.78;4993991;28;20207;-72
2023/03/31 07:23:47;;;;;;;5.25;4.00;;;;;;;36.67;16.54;94837.50;4996514;28;20892;-71
2023/03/31 07:26:13;;;;;;;6.45;4.57;;;;;;;37.57;15.69;94829.88;4995999;28;20295;-70
2023/03/31 07:28:41;;;;;;;8.88;3.97;;;;;;;38.24;15.31;94827.94;4995536;28;20642;-71
2023/03/31 07:31:12;;;;;;;4.07;2.67;;;;;;;37.91;15.18;94833.69;4993987;28;20228;-70
2023/03/31 07:33:39;;;;;;;3.60;2.97;;;;;;;37.12;15.93;94828.31;4994885;28;20291;-69
2023/03/31 07:36:06;;;;;;;6.97;3.55;;;;;;;35.29;17.01;94839.16;4995882;28;20231;-64
2023/03/31 07:38:33;;;;;;;7.30;3.75;;;;;;;34.02;17.88;94834.16;4997475;28;20262;-69
2023/03/31 07:41:00;;;;;;;4.38;3.22;;;;;;;33.87;18.24;94838.78;4999919;28;20294;-68
2023/03/31 07:43:27;;;;;;;4.50;3.97;;;;;;;34.15;17.73;94823.63;5000145;28;21566;-69
2023/03/31 07:45:55;;;;;;;9.65;4.15;;;;;;;34.62;17.13;94825.25;4999280;28;20326;-67
2023/03/31 07:48:21;;;;;;;9.20;4.28;;;;;;;34.94;17.49;94830.69;4998911;28;20208;-69
2023/03/31 07:50:50;;;;;;;5.78;4.05;;;;;;;36.20;16.56;94821.19;4997072;28;20776;-69
2023/03/31 07:53:16;;;;;;;6.82;3.38;;;;;;;37.66;15.43;94837.28;5000197;28;20242;-69
2023/03/31 07:55:43;;;;;;;4.13;3.03;;;;;;;38.88;14.79;94840.34;4999936;28;20354;-67
2023/03/31 07:58:11;;;;;;;3.20;2.90;;;;;;;40.19;13.32;94838.75;4998499;28;20295;-68
2023/03/31 08:00:37;;;;;;;3.65;3.35;;;;;;;40.45;13.71;94822.19;4999301;28;20681;-71
2023/03/31 08:03:06;;;;;;;7.25;3.30;;;;;;;40.68;13.71;94826.50;4998730;28;20237;-67
2023/03/31 08:05:33;;;;;;;4.55;2.90;;;;;;;41.21;13.40;94816.38;4999017;28;20228;-66
2023/03/31 08:08:00;;;;;;;10.13;5.43;;;;;;;40.59;12.94;94808.50;4998853;28;20974;-64
2023/03/31 08:10:27;;;;;;;5.07;3.40;;;;;;;40.62;13.23;94802.69;4999135;28;20208;-72
2023/03/31 08:12:54;;;;;;;11.40;3.85;;;;;;;37.13;15.23;94806.06;4998873;28;20261;-69
2023/03/31 08:15:21;;;;;;;8.85;3.50;;;;;;;32.86;18.05;94814.84;4998486;28;20300;-70
2023/03/31 08:17:48;;;;;;;7.00;2.78;;;;;;;30.23;19.92;94813.47;4999048;28;20219;-70
2023/03/31 08:20:16;;;;;;;6.55;2.65;;;;;;;28.92;21.30;94812.63;4999366;28;20769;-71
2023/03/31 08:22:43;;;;;;;6.93;2.65;;;;;;;28.63;22.12;94812.34;4997630;28;20286;-71
2023/03/31 08:25:10;;;;;;;6.13;2.92;;;;;;;31.90;19.43;94812.84;4996916;28;22255;-71
2023/03/31 08:27:38;;;;;;;9.52;4.38;;;;;;;35.30;17.11;94812.53;4997690;28;20309;-68
2023/03/31 08:30:06;;;;;;;8.25;3.75;;;;;;;37.73;14.96;94803.53;4997852;28;20785;-72
2023/03/31 08:32:33;;;;;;;8.75;3.95;;;;;;;39.27;13.74;94791.00;4999311;28;20215;-64
2023/03/31 08:35:00;;;;;;;5.70;3.38;;;;;;;39.37;14.04;94801.00;4999409;28;20215;-70
2023/03/31 08:37:30;;;;;;;6.32;3.63;;;;;;;39.63;13.98;94800.47;4996114;28;20299;-71
2023/03/31 08:39:57;;;;;;;5.13;2.97;;;;;;;40.26;13.64;94788.81;4996027;28;20335;-68
2023/03/31 08:42:32;;;;;;;7.10;3.92;;;;;;;41.01;13.27;94795.56;4998643;28;20212;-71
2023/03/31 08:45:03;;;;;;;6.20;3.50;;;;;;;41.60;12.65;94788.56;4999706;28;20239;-69
2023/03/31 08:47:33;;;;;;;5.05;3.90;;;;;;;42.05;12.14;94788.25;4998492;28;20207;-70
2023/03/31 08:50:06;;;;;;;4.93;3.65;;;;;;;42.23;11.97;94784.41;4996003;28;20200;-66
2023/03/31 08:52:40;;;;;;;5.22;3.00;;;;;;;41.59;12.02;94770.94;4998686;28;20208;-73
2023/03/31 08:55:12;;;;;;;5.60;3.33;;;;;;;38.25;14.02;94777.28;4998384;28;20208;-69
2023/03/31 08:57:48;;;;;;;6.03;2.95;;;;;;;33.46;17.70;94784.31;4998684;28;20208;-69
2023/03/31 09:00:17;;;;;;;4.57;3.08;;;;;;;29.57;20.02;94780.06;4997083;28;20203;-71
2023/03/31 09:02:51;;;;;;;3.28;3.03;;;;;;;26.63;22.90;94772.56;4998667;28;20211;-71
2023/03/31 09:05:37;;;;;;;4.70;2.63;;;;;;;24.54;26.13;94776.47;4998151;28;20332;-66
2023/03/31 09:08:13;;;;;;;4.07;2.40;;;;;;;23.75;27.43;94784.59;4998401;28;20301;-70
2023/03/31 09:10:46;;;;;;;2.60;1.90;;;;;;;23.40;28.06;94767.75;4998442;28;20208;-71
2023/03/31 09:13:40;;;;;;;4.07;2.30;;;;;;;22.87;28.55;94771.63;4997824;28;20228;-70
2023/03/31 09:16:14;;;;;;;7.00;2.28;;;;;;;22.81;29.38;94779.94;5002234;28;20709;-72
2023/03/31 09:18:45;;;;;;;9.00;2.53;;;;;;;23.36;28.29;94771.56;4997758;28;20208;-73
2023/03/31 09:21:18;;;;;;;4.72;2.65;;;;;;;23.69;27.81;94770.38;4996863;28;20650;-70
2023/03/31 09:23:51;;;;;;;3.50;2.35;;;;;;;23.34;28.46;94762.28;4998172;28;20278;-67
2023/03/31 09:26:26;;;;;;;2.30;2.13;;;;;;;22.17;29.93;94765.50;4997447;28;20230;-68
2023/03/31 09:28:58;;;;;;;2.15;1.73;;;;;;;21.72;30.50;94770.91;4998446;28;20333;-69
2023/03/31 09:31:25;;;;;;;8.05;2.50;;;;;;;21.83;30.97;94776.97;4997488;28;20250;-72
2023/03/31 09:33:58;;;;;;;5.40;2.78;;;;;;;21.94;30.33;94772.56;4997852;28;20208;-72
2023/03/31 09:36:25;;;;;;;2.90;2.30;;;;;;;21.50;31.53;94771.03;4998451;28;20204;-70
2023/03/31 09:38:54;;;;;;;7.55;2.35;;;;;;;21.26;31.68;94778.16;4996932;28;20264;-71
2023/03/31 09:41:21;;;;;;;2.60;2.25;;;;;;;21.08;31.88;94774.41;4997583;28;20215;-71
2023/03/31 09:43:48;;;;;;;6.22;2.28;;;;;;;20.99;32.06;94774.22;4997181;28;20298;-67
2023/03/31 09:46:19;;;;;;;8.32;2.65;;;;;;;21.06;32.20;94771.94;4997292;28;20228;-69
2023/03/31 09:48:55;;;;;;;7.50;2.88;;;;;;;20.90;32.42;94762.03;4998119;28;20630;-69
2023/03/31 09:51:28;;;;;;;4.60;2.67;;;;;;;20.90;32.62;94763.78;4997349;28;20223;-71
2023/03/31 09:54:01;;;;;;;5.32;2.92;;;;;;;20.92;32.42;94760.13;4999322;28;20208;-72
2023/03/31 09:56:52;;;;;;;4.25;2.38;;;;;;;20.85;32.46;94758.97;4998559;28;20197;-70
2023/03/31 09:59:21;;;;;;;11.60;3.30;;;;;;;21.16;32.37;94761.72;4979741;28;20604;-68
2023/03/31 10:01:51;;;;;;;3.83;2.60;;;;;;;21.57;32.57;94750.63;4998725;28;20307;-70
2023/03/31 10:04:22;;;;;;;4.82;2.45;;;;;;;21.81;31.33;94752.97;4999443;28;20211;-67
2023/03/31 10:06:51;;;;;;;4.68;3.25;;;;;;;21.76;31.27;94744.81;5003392;28;20269;-68
2023/03/31 10:09:22;;;;;;;6.68;2.92;;;;;;;21.65;31.83;94748.25;5003743;28;20208;-67
2023/03/31 10:11:54;;;;;;;7.05;2.47;;;;;;;21.78;31.43;94732.56;4998062;28;20212;-70
2023/03/31 10:14:27;;;;;;;2.70;2.25;;;;;;;21.62;31.62;94728.63;4996929;28;20686;-71
2023/03/31 10:16:55;;;;;;;4.18;2.40;;;;;;;21.37;32.41;94724.66;4998954;28;20291;-69
2023/03/31 10:19:23;;;;;;;9.93;2.83;;;;;;;21.29;32.36;94727.03;4999132;28;20208;-71
2023/03/31 10:21:57;;;;;;;6.00;2.28;;;;;;;21.35;32.24;94729.13;4997194;28;20262;-70
2023/03/31 10:24:26;;;;;;;4.72;1.88;;;;;;;21.45;32.08;94725.81;4997113;28;20220;-73
2023/03/31 10:26:55;;;;;;;2.10;1.92;;;;;;;21.33;32.30;94722.44;4995476;28;20709;-73
2023/03/31 10:29:25;;;;;;;3.75;2.50;;;;;;;21.24;33.03;94723.19;4996558;28;20204;-71
2023/03/31 10:31:52;;;;;;;3.83;2.20;;;;;;;21.03;33.47;94721.34;4996051;28;20698;-72
2023/03/31 10:34:20;;;;;;;5.30;2.40;;;;;;;20.98;34.25;94713.16;4995966;28;20701;-70
2023/03/31 10:36:49;;;;;;;7.63;2.50;;;;;;;20.91;34.08;94703.44;4997560;28;20596;-66
2023/03/31 10:39:18;;;;;;;2.58;2.33;;;;;;;20.99;34.00;94716.56;4996995;28;20663;-66
2023/03/31 10:41:50;;;;;;;4.43;2.58;;;;;;;20.97;33.97;94701.19;4997661;28;20209;-71
2023/03/31 10:44:39;;;;;;;2.47;2.30;;;;;;;20.83;34.22;94703.22;4996180;28;20219;-74
2023/03/31 10:47:20;;;;;;;3.92;2.35;;;;;;;20.83;34.34;94693.69;4993885;28;20308;-70
2023/03/31 10:49:50;;;;;;;3.28;2.67;;;;;;;20.83;34.30;94693.69;4996456;28;20212;-69
2023/03/31 10:52:20;;;;;;;3.95;2.58;;;;;;;20.95;34.32;94699.66;4996678;28;20214;-69
2023/03/31 10:54:49;;;;;;;6.63;2.42;;;;;;;21.01;34.35;94681.91;4996089;28;20347;-69
2023/03/31 10:57:22;;;;;;;3.63;2.63;;;;;;;21.07;33.75;94683.16;4995967;28;21476;-71
2023/03/31 11:00:03;;;;;;;3.65;2.20;;;;;;;21.06;33.71;94674.59;4995518;28;20694;-70
2023/03/31 11:03:04;;;;;;;6.05;2.40;;;;;;;20.96;34.15;94684.03;4996291;28;20208;-70
2023/03/31 11:05:36;;;;;;;8.50;4.03;;;;;;;21.13;33.70;94684.44;4995198;28;20636;-69
2023/03/31 11:08:18;;;;;;;6.05;3.15;;;;;;;21.20;33.55;94670.09;4995949;28;20779;-71
2023/03/31 11:11:00;;;;;;;4.55;2.70;;;;;;;20.95;33.67;94677.25;4994952;28;20220;-69
2023/03/31 11:13:36;;;;;;;4.20;3.55;;;;;;;20.88;34.10;94660.59;4995592;28;20294;-70
2023/03/31 11:16:15;;;;;;;5.28;3.05;;;;;;;20.66;34.15;94668.41;4995508;28;20200;-69
2023/03/31 11:18:54;;;;;;;3.35;3.00;;;;;;;20.43;34.64;94674.56;4996308;28;20305;-71
2023/03/31 11:21:27;;;;;;;7.50;2.50;;;;;;;20.26;34.64;94662.97;4995758;28;20762;-68
2023/03/31 11:24:03;;;;;;;4.80;2.40;;;;;;;20.28;34.97;94653.34;4996068;28;20299;-67
2023/03/31 11:26:41;;;;;;;5.60;2.58;;;;;;;20.24;35.14;94650.16;4995488;28;20382;-70
2023/03/31 11:29:24;;;;;;;6.68;2.03;;;;;;;20.24;34.73;94639.84;4996628;28;20622;-71
2023/03/31 11:31:58;;;;;;;9.80;2.97;;;;;;;20.19;35.00;94646.31;4995839;28;20274;-71
2023/03/31 11:34:53;;;;;;;6.88;2.60;;;;;;;20.16;34.69;94643.97;4995362;28;20296;-69
2023/03/31 11:37:31;;;;;;;8.23;2.60;;;;;;;19.99;34.86;94624.63;4996363;28;20607;-73
2023/03/31 11:40:24;;;;;;;2.83;2.50;;;;;;;20.12;34.76;94634.81;4995888;28;20248;-71
2023/03/31 11:42:54;;;;;;;7.82;2.70;;;;;;;19.85;35.50;94630.03;4997829;28;20236;-69
2023/03/31 11:45:27;;;;;;;3.58;2.28;;;;;;;19.71;35.95;94636.25;4995789;28;20263;-72
2023/03/31 11:48:01;;;;;;;8.05;3.60;;;;;;;19.73;36.91;94629.22;4995751;28;20301;-71